createdAt,value
2022-10-02T00:02:03.833Z,12.22
2022-10-02T00:04:37.318Z,12.12
2022-10-02T00:07:06.979Z,12.06
2022-10-02T00:09:49.224Z,12.02
2022-10-02T00:12:18.660Z,11.98
2022-10-02T00:14:47.474Z,11.93
2022-10-02T00:17:21.239Z,11.87
2022-10-02T00:19:47.569Z,11.86
2022-10-02T00:22:26.032Z,11.87
2022-10-02T00:25:20.923Z,11.80
2022-10-02T00:27:59.212Z,11.80
2022-10-02T00:30:26.043Z,11.79
2022-10-02T00:33:11.095Z,11.75
2022-10-02T00:35:56.486Z,11.74
2022-10-02T00:38:44.442Z,11.96
2022-10-02T00:41:24.752Z,12.19
2022-10-02T00:44:03.167Z,12.41
2022-10-02T00:46:41.186Z,12.46
2022-10-02T00:49:40.120Z,12.54
2022-10-02T00:52:38.791Z,12.53
2022-10-02T00:55:21.630Z,12.40
2022-10-02T00:57:57.010Z,12.30
2022-10-02T01:00:23.607Z,12.19
2022-10-02T01:03:07.805Z,12.11
2022-10-02T01:05:34.665Z,12.03
2022-10-02T01:08:01.449Z,12.00
2022-10-02T01:10:28.804Z,11.98
2022-10-02T01:12:56.712Z,11.93
2022-10-02T01:15:29.116Z,11.85
2022-10-02T01:17:56.290Z,11.73
2022-10-02T01:20:42.406Z,11.67
2022-10-02T01:23:30.406Z,11.61
2022-10-02T01:25:58.227Z,11.55
2022-10-02T01:28:25.059Z,11.51
2022-10-02T01:30:56.416Z,11.46
2022-10-02T01:33:23.037Z,11.43
2022-10-02T01:35:50.012Z,11.44
2022-10-02T01:38:20.281Z,11.49
2022-10-02T01:40:46.652Z,11.54
2022-10-02T01:43:25.287Z,11.57
2022-10-02T01:46:29.316Z,11.60
2022-10-02T01:48:55.543Z,11.62
2022-10-02T01:51:59.302Z,11.64
2022-10-02T01:54:54.778Z,11.66
2022-10-02T01:57:49.263Z,11.68
2022-10-02T02:00:17.314Z,11.69
2022-10-02T02:02:53.518Z,11.67
2022-10-02T02:05:56.165Z,11.59
2022-10-02T02:08:25.797Z,11.55
2022-10-02T02:11:10.099Z,11.56
2022-10-02T02:13:54.616Z,11.54
2022-10-02T02:16:44.424Z,11.58
2022-10-02T02:19:36.058Z,11.67
2022-10-02T02:22:12.398Z,11.69
2022-10-02T02:24:45.023Z,11.69
2022-10-02T02:27:17.727Z,11.69
2022-10-02T02:29:48.687Z,11.66
2022-10-02T02:32:21.038Z,11.61
2022-10-02T02:35:17.239Z,11.61
2022-10-02T02:37:46.604Z,11.62
2022-10-02T02:40:17.139Z,11.63
2022-10-02T02:42:51.183Z,11.60
2022-10-02T02:45:24.591Z,11.59
2022-10-02T02:47:55.504Z,11.63
2022-10-02T02:50:27.371Z,11.66
2022-10-02T02:53:09.751Z,11.68
2022-10-02T02:55:45.154Z,11.73
2022-10-02T02:58:20.459Z,11.77
2022-10-02T03:00:47.084Z,11.83
2022-10-02T03:03:13.577Z,11.85
2022-10-02T03:05:45.866Z,11.86
2022-10-02T03:08:22.867Z,11.88
2022-10-02T03:11:24.422Z,11.91
2022-10-02T03:14:12.040Z,11.86
2022-10-02T03:17:06.224Z,11.82
2022-10-02T03:19:35.442Z,11.82
2022-10-02T03:22:20.328Z,11.80
2022-10-02T03:25:02.901Z,11.79
2022-10-02T03:27:37.250Z,11.67
2022-10-02T03:30:14.444Z,11.57
2022-10-02T03:32:44.187Z,11.51
2022-10-02T03:35:13.043Z,11.47
2022-10-02T03:37:43.926Z,11.47
2022-10-02T03:40:10.439Z,11.50
2022-10-02T03:42:37.062Z,11.54
2022-10-02T03:45:04.645Z,11.59
2022-10-02T03:47:31.042Z,11.61
2022-10-02T03:49:57.361Z,11.60
2022-10-02T03:52:24.078Z,11.63
2022-10-02T03:55:01.918Z,11.61
2022-10-02T03:57:30.155Z,11.62
2022-10-02T04:00:19.099Z,11.66
2022-10-02T04:02:51.338Z,11.69
2022-10-02T04:05:44.773Z,11.68
2022-10-02T04:08:13.751Z,11.69
2022-10-02T04:10:50.685Z,11.68
2022-10-02T04:13:24.850Z,11.61
2022-10-02T04:16:07.655Z,11.55
2022-10-02T04:18:41.503Z,11.56
2022-10-02T04:21:26.473Z,11.53
2022-10-02T04:23:58.255Z,11.48
2022-10-02T04:26:27.811Z,11.38
2022-10-02T04:29:02.989Z,11.32
2022-10-02T04:31:29.334Z,11.28
2022-10-02T04:34:00.886Z,11.31
2022-10-02T04:36:45.664Z,11.34
2022-10-02T04:39:46.784Z,11.32
2022-10-02T04:42:27.464Z,11.25
2022-10-02T04:45:12.105Z,11.16
2022-10-02T04:47:56.993Z,11.10
2022-10-02T04:50:55.711Z,11.03
2022-10-02T04:53:40.194Z,10.99
2022-10-02T04:56:21.422Z,10.96
2022-10-02T04:59:00.186Z,10.92
2022-10-02T05:01:35.701Z,10.84
2022-10-02T05:04:19.271Z,10.82
2022-10-02T05:07:11.813Z,10.71
2022-10-02T05:10:13.666Z,10.74
2022-10-02T05:13:21.679Z,10.72
2022-10-02T05:15:55.616Z,10.73
2022-10-02T05:18:37.224Z,10.82
2022-10-02T05:21:15.666Z,10.93
2022-10-02T05:24:03.916Z,10.99
2022-10-02T05:26:44.122Z,11.08
2022-10-02T05:29:38.035Z,11.13
2022-10-02T05:32:47.914Z,11.33
2022-10-02T05:36:13.178Z,11.57
2022-10-02T05:39:07.714Z,11.69
2022-10-02T05:41:40.066Z,11.70
2022-10-02T05:44:13.187Z,11.71
2022-10-02T05:47:05.435Z,11.73
2022-10-02T05:49:38.482Z,11.69
2022-10-02T05:52:25.251Z,11.66
2022-10-02T05:54:55.484Z,11.59
2022-10-02T05:57:35.057Z,11.51
2022-10-02T06:00:05.136Z,11.49
2022-10-02T06:02:59.047Z,11.47
2022-10-02T06:05:33.754Z,11.49
2022-10-02T06:08:03.936Z,11.52
2022-10-02T06:10:43.147Z,11.58
2022-10-02T06:13:17.868Z,11.61
2022-10-02T06:15:51.109Z,11.62
2022-10-02T06:18:23.831Z,11.64
2022-10-02T06:20:56.195Z,11.72
2022-10-02T06:23:27.744Z,11.72
2022-10-02T06:26:00.895Z,11.77
2022-10-02T06:28:51.879Z,11.76
2022-10-02T06:31:40.192Z,11.81
2022-10-02T06:34:11.318Z,11.87
2022-10-02T06:37:05.346Z,11.88
2022-10-02T06:39:53.391Z,11.91
2022-10-02T06:42:41.019Z,11.97
2022-10-02T06:45:18.851Z,12.00
2022-10-02T06:47:59.052Z,12.09
2022-10-02T06:50:43.374Z,12.13
2022-10-02T06:53:30.262Z,12.23
2022-10-02T06:56:01.363Z,12.31
2022-10-02T06:58:57.159Z,12.39
2022-10-02T07:01:35.409Z,12.47
2022-10-02T07:04:13.310Z,12.60
2022-10-02T07:07:04.649Z,12.68
2022-10-02T07:10:07.525Z,12.78
2022-10-02T07:12:57.022Z,12.88
2022-10-02T07:15:44.211Z,12.99
2022-10-02T07:18:25.799Z,13.04
2022-10-02T07:21:27.819Z,13.11
2022-10-02T07:24:08.208Z,13.17
2022-10-02T07:26:41.967Z,13.27
2022-10-02T07:29:32.351Z,13.35
2022-10-02T07:32:34.230Z,13.40
2022-10-02T07:35:22.581Z,13.46
2022-10-02T07:38:10.712Z,13.50
2022-10-02T07:41:02.815Z,13.69
2022-10-02T07:43:47.977Z,13.90
2022-10-02T07:46:29.878Z,14.14
2022-10-02T07:49:02.498Z,14.36
2022-10-02T07:51:49.614Z,14.51
2022-10-02T07:54:24.884Z,14.68
2022-10-02T07:56:53.952Z,14.75
2022-10-02T07:59:20.755Z,14.94
2022-10-02T08:01:50.565Z,15.49
2022-10-02T08:04:36.639Z,16.18
2022-10-02T08:07:04.785Z,17.16
2022-10-02T08:09:38.711Z,16.71
2022-10-02T08:12:28.846Z,16.40
2022-10-02T08:14:57.540Z,16.19
2022-10-02T08:17:44.208Z,16.02
2022-10-02T08:20:25.377Z,16.03
2022-10-02T08:23:03.234Z,16.08
2022-10-02T08:25:37.771Z,16.12
2022-10-02T08:28:19.801Z,16.04
2022-10-02T08:30:46.708Z,16.08
2022-10-02T08:33:19.288Z,16.23
2022-10-02T08:36:02.682Z,16.50
2022-10-02T08:38:40.222Z,16.97
2022-10-02T08:41:35.165Z,17.68
2022-10-02T08:44:35.982Z,18.61
2022-10-02T08:47:36.645Z,18.49
2022-10-02T08:50:37.042Z,18.68
2022-10-02T08:53:21.958Z,18.99
2022-10-02T08:56:20.185Z,18.37
2022-10-02T08:58:57.918Z,18.30
2022-10-02T09:01:45.234Z,18.52
2022-10-02T09:04:40.420Z,18.92
2022-10-02T09:07:48.313Z,19.36
2022-10-02T09:10:45.203Z,19.05
2022-10-02T09:13:29.689Z,18.88
2022-10-02T09:16:11.497Z,19.01
2022-10-02T09:18:38.356Z,19.77
2022-10-02T09:21:52.435Z,19.10
2022-10-02T09:24:37.014Z,17.75
2022-10-02T09:27:34.394Z,17.18
2022-10-02T09:30:18.085Z,16.94
2022-10-02T09:33:16.970Z,16.79
2022-10-02T09:36:04.326Z,16.62
2022-10-02T09:38:45.034Z,16.38
2022-10-02T09:41:50.002Z,16.33
2022-10-02T09:45:01.489Z,16.45
2022-10-02T09:47:55.180Z,18.24
2022-10-02T09:50:53.529Z,19.37
2022-10-02T09:53:58.402Z,20.39
2022-10-02T09:56:45.462Z,20.98
2022-10-02T09:59:45.914Z,21.21
2022-10-02T10:02:20.453Z,21.33
2022-10-02T10:05:08.721Z,21.72
2022-10-02T10:07:52.990Z,21.44
2022-10-02T10:10:22.061Z,19.82
2022-10-02T10:13:10.612Z,18.73
2022-10-02T10:16:11.301Z,18.23
2022-10-02T10:19:22.075Z,17.92
2022-10-02T10:22:26.661Z,17.78
2022-10-02T10:25:04.438Z,17.77
2022-10-02T10:27:55.281Z,17.76
2022-10-02T10:30:56.391Z,17.73
2022-10-02T10:33:33.149Z,18.47
2022-10-02T10:37:00.353Z,19.55
2022-10-02T10:40:04.577Z,20.61
2022-10-02T10:43:06.855Z,20.29
2022-10-02T10:45:34.987Z,19.18
2022-10-02T10:48:27.443Z,18.57
2022-10-02T10:51:19.766Z,18.25
2022-10-02T10:54:01.716Z,18.17
2022-10-02T10:56:35.707Z,19.97
2022-10-02T10:59:25.491Z,21.80
2022-10-02T11:02:03.417Z,20.76
2022-10-02T11:04:53.426Z,18.66
2022-10-02T11:07:44.386Z,17.46
2022-10-02T11:10:32.112Z,16.96
2022-10-02T11:13:23.718Z,16.46
2022-10-02T11:16:08.916Z,16.08
2022-10-02T11:19:01.470Z,16.01
2022-10-02T11:21:48.039Z,16.59
2022-10-02T11:24:33.770Z,17.10
2022-10-02T11:27:18.847Z,18.07
2022-10-02T11:30:12.061Z,21.47
2022-10-02T11:33:02.939Z,22.17
2022-10-02T11:35:37.957Z,21.87
2022-10-02T11:38:42.155Z,20.45
2022-10-02T11:41:32.827Z,19.24
2022-10-02T11:44:22.169Z,18.94
2022-10-02T11:47:13.716Z,19.53
2022-10-02T11:50:05.255Z,19.69
2022-10-02T11:52:56.449Z,22.02
2022-10-02T11:55:44.277Z,23.94
2022-10-02T11:58:45.020Z,23.96
2022-10-02T12:01:35.919Z,25.07
2022-10-02T12:04:30.370Z,24.60
2022-10-02T12:07:21.515Z,23.06
2022-10-02T12:10:12.329Z,22.36
2022-10-02T12:13:03.570Z,24.49
2022-10-02T12:15:33.127Z,25.30
2022-10-02T12:18:10.191Z,25.18
2022-10-02T12:21:19.966Z,24.76
2022-10-02T12:24:32.300Z,22.53
2022-10-02T12:27:10.476Z,20.31
2022-10-02T12:29:55.899Z,18.79
2022-10-02T12:32:27.362Z,17.90
2022-10-02T12:35:09.819Z,17.34
2022-10-02T12:37:49.387Z,16.92
2022-10-02T12:40:27.627Z,17.53
2022-10-02T12:43:12.886Z,17.78
2022-10-02T12:46:13.102Z,17.53
2022-10-02T12:48:58.247Z,17.95
2022-10-02T12:51:30.020Z,18.17
2022-10-02T12:54:16.040Z,18.07
2022-10-02T12:57:35.429Z,17.84
2022-10-02T13:00:14.673Z,17.59
2022-10-02T13:03:00.734Z,17.24
2022-10-02T13:05:37.850Z,16.94
2022-10-02T13:08:24.408Z,16.86
2022-10-02T13:11:14.769Z,16.74
2022-10-02T13:14:00.443Z,16.91
2022-10-02T13:16:35.045Z,17.02
2022-10-02T13:19:13.838Z,16.97
2022-10-02T13:22:03.914Z,16.96
2022-10-02T13:24:51.659Z,17.30
2022-10-02T13:27:39.986Z,17.81
2022-10-02T13:30:18.040Z,18.40
2022-10-02T13:33:15.388Z,18.63
2022-10-02T13:35:53.777Z,18.62
2022-10-02T13:38:26.182Z,18.36
2022-10-02T13:41:20.508Z,17.82
2022-10-02T13:44:12.123Z,17.10
2022-10-02T13:46:57.134Z,16.65
2022-10-02T13:49:45.314Z,16.33
2022-10-02T13:52:35.938Z,16.17
2022-10-02T13:55:17.619Z,16.07
2022-10-02T13:58:02.298Z,16.07
2022-10-02T14:00:38.040Z,16.57
2022-10-02T14:03:41.518Z,17.22
2022-10-02T14:06:31.573Z,17.31
2022-10-02T14:09:08.709Z,17.21
2022-10-02T14:11:50.202Z,17.33
2022-10-02T14:14:26.772Z,17.30
2022-10-02T14:17:13.798Z,16.96
2022-10-02T14:20:18.579Z,16.79
2022-10-02T14:22:53.954Z,17.04
2022-10-02T14:25:42.482Z,17.16
2022-10-02T14:28:11.560Z,16.99
2022-10-02T14:31:23.148Z,16.87
2022-10-02T14:33:56.081Z,16.97
2022-10-02T14:36:32.255Z,17.08
2022-10-02T14:39:01.505Z,17.33
2022-10-02T14:42:10.467Z,17.40
2022-10-02T14:45:00.373Z,17.33
2022-10-02T14:47:48.190Z,17.43
2022-10-02T14:50:33.487Z,17.45
2022-10-02T14:53:14.676Z,17.41
2022-10-02T14:56:08.678Z,17.37
2022-10-02T14:59:10.082Z,17.06
2022-10-02T15:02:12.089Z,16.77
2022-10-02T15:04:47.437Z,16.51
2022-10-02T15:07:18.139Z,16.13
2022-10-02T15:10:02.937Z,15.77
2022-10-02T15:12:48.268Z,15.47
2022-10-02T15:15:40.080Z,15.23
2022-10-02T15:18:43.144Z,14.95
2022-10-02T15:21:26.722Z,14.81
2022-10-02T15:23:56.673Z,14.69
2022-10-02T15:26:50.538Z,14.57
2022-10-02T15:29:31.999Z,14.42
2022-10-02T15:32:28.175Z,14.42
2022-10-02T15:35:07.554Z,14.58
2022-10-02T15:38:04.825Z,14.69
2022-10-02T15:40:47.247Z,14.68
2022-10-02T15:43:16.510Z,14.91
2022-10-02T15:45:42.798Z,15.00
2022-10-02T15:48:24.345Z,14.88
2022-10-02T15:51:18.621Z,14.89
2022-10-02T15:53:59.882Z,14.88
2022-10-02T15:56:55.691Z,14.93
2022-10-02T15:59:52.372Z,14.87
2022-10-02T16:02:48.574Z,14.79
2022-10-02T16:05:38.735Z,14.67
2022-10-02T16:08:25.121Z,14.55
2022-10-02T16:11:26.749Z,14.41
2022-10-02T16:14:11.587Z,14.47
2022-10-02T16:16:39.430Z,14.37
2022-10-02T16:19:34.897Z,14.33
2022-10-02T16:22:32.591Z,14.27
2022-10-02T16:25:21.533Z,14.19
2022-10-02T16:27:58.918Z,14.19
2022-10-02T16:30:30.878Z,14.09
2022-10-02T16:33:14.938Z,14.06
2022-10-02T16:36:18.960Z,13.87
2022-10-02T16:38:51.638Z,13.74
2022-10-02T16:41:42.990Z,13.60
2022-10-02T16:44:37.263Z,13.48
2022-10-02T16:47:24.990Z,13.33
2022-10-02T16:50:14.191Z,13.22
2022-10-02T16:53:00.856Z,13.08
2022-10-02T16:55:32.258Z,12.98
2022-10-02T16:58:09.895Z,12.88
2022-10-02T17:00:48.192Z,12.78
2022-10-02T17:03:30.367Z,12.66
2022-10-02T17:06:15.293Z,12.56
2022-10-02T17:08:54.749Z,12.41
2022-10-02T17:11:45.106Z,12.25
2022-10-02T17:14:11.506Z,12.11
2022-10-02T17:16:47.148Z,11.98
2022-10-02T17:19:53.750Z,11.89
2022-10-02T17:22:28.652Z,11.79
2022-10-02T17:25:26.905Z,11.67
2022-10-02T17:28:02.276Z,11.57
2022-10-02T17:30:43.953Z,11.48
2022-10-02T17:33:13.209Z,11.39
2022-10-02T17:35:42.602Z,11.34
2022-10-02T17:38:24.101Z,11.28
2022-10-02T17:41:09.263Z,11.23
2022-10-02T17:43:50.895Z,11.16
2022-10-02T17:46:38.300Z,11.13
2022-10-02T17:49:27.892Z,11.12
2022-10-02T17:52:47.051Z,11.12
2022-10-02T17:55:53.530Z,11.04
2022-10-02T17:58:39.166Z,10.99
2022-10-02T18:01:17.652Z,10.90
2022-10-02T18:04:14.641Z,10.84
2022-10-02T18:06:41.909Z,10.73
2022-10-02T18:09:45.633Z,10.68
2022-10-02T18:12:35.998Z,10.59
2022-10-02T18:15:22.774Z,10.51
2022-10-02T18:18:08.042Z,10.43
2022-10-02T18:20:50.117Z,10.34
2022-10-02T18:23:19.155Z,10.27
2022-10-02T18:26:05.259Z,10.21
2022-10-02T18:29:07.534Z,10.17
2022-10-02T18:32:02.873Z,10.14
2022-10-02T18:34:29.380Z,10.09
2022-10-02T18:37:18.912Z,10.03
2022-10-02T18:40:12.958Z,9.99
2022-10-02T18:42:56.966Z,9.96
2022-10-02T18:45:56.128Z,9.87
2022-10-02T18:48:34.464Z,9.78
2022-10-02T18:51:28.502Z,9.77
2022-10-02T18:54:17.874Z,9.72
2022-10-02T18:57:16.666Z,9.66
2022-10-02T19:00:02.761Z,9.59
2022-10-02T19:02:50.718Z,9.52
2022-10-02T19:05:22.941Z,9.49
2022-10-02T19:07:56.261Z,9.46
2022-10-02T19:10:31.517Z,9.40
2022-10-02T19:13:17.565Z,9.36
2022-10-02T19:15:46.203Z,9.34
2022-10-02T19:18:25.185Z,9.32
2022-10-02T19:20:57.522Z,9.29
2022-10-02T19:23:32.435Z,9.22
2022-10-02T19:26:05.112Z,9.17
2022-10-02T19:28:37.268Z,9.14
2022-10-02T19:31:07.958Z,9.17
2022-10-02T19:33:51.063Z,9.23
2022-10-02T19:36:21.041Z,9.27
2022-10-02T19:38:54.430Z,9.24
2022-10-02T19:41:22.694Z,9.16
2022-10-02T19:44:00.847Z,9.11
2022-10-02T19:46:33.079Z,9.07
2022-10-02T19:49:01.385Z,9.05
2022-10-02T19:51:27.905Z,9.03
2022-10-02T19:54:03.388Z,8.94
2022-10-02T19:56:39.640Z,8.85
2022-10-02T19:59:16.922Z,8.78
2022-10-02T20:01:49.827Z,8.73
2022-10-02T20:04:20.462Z,8.67
2022-10-02T20:06:52.787Z,8.59
2022-10-02T20:09:26.810Z,8.53
2022-10-02T20:12:10.954Z,8.51
2022-10-02T20:14:44.220Z,8.54
2022-10-02T20:17:13.151Z,8.58
2022-10-02T20:19:54.169Z,8.58
2022-10-02T20:22:34.295Z,8.59
2022-10-02T20:25:28.780Z,8.59
2022-10-02T20:28:03.379Z,8.52
2022-10-02T20:30:43.896Z,8.50
2022-10-02T20:33:24.554Z,8.42
2022-10-02T20:36:06.686Z,8.34
2022-10-02T20:39:00.751Z,8.30
2022-10-02T20:41:32.737Z,8.29
2022-10-02T20:44:06.018Z,8.26
2022-10-02T20:46:47.645Z,8.23
2022-10-02T20:49:35.221Z,8.22
2022-10-02T20:52:07.556Z,8.22
2022-10-02T20:54:56.792Z,8.19
2022-10-02T20:58:01.420Z,8.19
2022-10-02T21:00:41.930Z,8.20
2022-10-02T21:03:19.479Z,8.16
2022-10-02T21:06:13.607Z,8.09
2022-10-02T21:09:06.401Z,8.09
2022-10-02T21:12:00.828Z,8.09
2022-10-02T21:14:53.175Z,8.07
2022-10-02T21:17:55.347Z,8.05
2022-10-02T21:20:50.862Z,8.00
2022-10-02T21:23:44.869Z,8.05
2022-10-02T21:26:26.995Z,8.02
2022-10-02T21:29:02.198Z,8.04
2022-10-02T21:31:28.445Z,8.03
2022-10-02T21:34:13.471Z,7.99
2022-10-02T21:36:47.698Z,7.91
2022-10-02T21:39:53.358Z,7.87
2022-10-02T21:42:47.385Z,7.84
2022-10-02T21:45:35.396Z,7.83
2022-10-02T21:48:39.241Z,7.83
2022-10-02T21:51:43.355Z,7.83
2022-10-02T21:54:34.564Z,7.80
2022-10-02T21:57:31.902Z,7.70
2022-10-02T22:00:04.212Z,7.64
2022-10-02T22:02:38.271Z,7.60
2022-10-02T22:05:30.262Z,7.61
2022-10-02T22:08:07.959Z,7.62
2022-10-02T22:10:43.900Z,7.62
2022-10-02T22:13:18.127Z,7.61
2022-10-02T22:15:50.313Z,7.63
2022-10-02T22:18:49.487Z,7.62
2022-10-02T22:21:31.274Z,7.60
2022-10-02T22:24:09.663Z,7.62
2022-10-02T22:27:15.056Z,7.63
2022-10-02T22:29:44.887Z,7.56
2022-10-02T22:33:06.444Z,7.52
2022-10-02T22:35:59.837Z,7.54
2022-10-02T22:38:36.620Z,7.55
2022-10-02T22:41:11.938Z,7.53
2022-10-02T22:44:02.223Z,7.52
2022-10-02T22:46:44.138Z,7.48
2022-10-02T22:49:22.251Z,7.46
2022-10-02T22:52:04.866Z,7.40
2022-10-02T22:54:44.559Z,7.34
2022-10-02T22:57:21.552Z,7.32
2022-10-02T23:00:11.716Z,7.31
2022-10-02T23:03:20.975Z,7.28
2022-10-02T23:05:54.170Z,7.21
2022-10-02T23:08:38.107Z,7.20
2022-10-02T23:11:49.176Z,7.13
2022-10-02T23:14:28.931Z,7.07
2022-10-02T23:17:18.407Z,7.06
2022-10-02T23:19:54.532Z,7.04
2022-10-02T23:22:31.200Z,7.03
2022-10-02T23:25:14.613Z,6.96
2022-10-02T23:28:05.226Z,6.91
2022-10-02T23:30:36.581Z,6.87
2022-10-02T23:33:24.532Z,6.88
2022-10-02T23:35:53.541Z,6.84
2022-10-02T23:38:52.446Z,6.87
2022-10-02T23:41:39.357Z,6.94
2022-10-02T23:44:19.626Z,6.98
2022-10-02T23:46:48.888Z,7.06
2022-10-02T23:49:22.806Z,7.11
2022-10-02T23:52:02.652Z,7.10
2022-10-02T23:54:31.976Z,7.07
2022-10-02T23:57:19.886Z,7.09
